Time;durP1;ratioP1;P1;durP2;ratioP2;P2;SDS_P1;SDS_P2;PMS_P1;PMS_P2;Temp;Humidity;BMP_temperature;BMP_pressure;BME280_temperature;BME280_humidity;BME280_pressure;Samples;Min_cycle;Max_cycle;Signal;HPM_P1;HPM_P2
2022/04/10 00:00:30;;;;;;;5.97;1.70;;;;;;;2.67;79.82;100302.16;5099320;28;20028;-81
2022/04/10 00:02:55;;;;;;;3.53;1.55;;;;;;;2.62;79.54;100305.28;5099383;28;20121;-81
2022/04/10 00:05:21;;;;;;;8.20;1.75;;;;;;;2.57;79.88;100307.56;5098275;28;20043;-80
2022/04/10 00:07:46;;;;;;;5.67;1.87;;;;;;;2.50;80.25;100311.84;5098747;28;20502;-80
2022/04/10 00:10:11;;;;;;;6.97;2.07;;;;;;;2.44;80.68;100310.63;5099379;28;20115;-81
2022/04/10 00:12:37;;;;;;;4.93;1.77;;;;;;;2.41;80.48;100313.59;5099269;28;20081;-80
2022/04/10 00:15:03;;;;;;;5.07;1.90;;;;;;;2.28;80.73;100307.03;5099347;28;20114;-80
2022/04/10 00:17:29;;;;;;;4.57;1.60;;;;;;;2.28;80.96;100315.00;5099107;28;20721;-81
2022/04/10 00:19:54;;;;;;;5.30;1.73;;;;;;;2.30;80.92;100313.84;5099419;28;20059;-81
2022/04/10 00:22:20;;;;;;;6.38;1.88;;;;;;;2.33;81.04;100326.00;5098542;28;20066;-81
2022/04/10 00:24:45;;;;;;;7.47;2.40;;;;;;;2.31;80.94;100323.50;5098009;28;20050;-80
2022/04/10 00:27:13;;;;;;;5.53;2.00;;;;;;;2.13;81.15;100322.69;5095908;28;20439;-80
2022/04/10 00:29:42;;;;;;;6.53;2.22;;;;;;;2.11;81.82;100321.16;5077734;28;20043;-81
2022/04/10 00:32:08;;;;;;;7.47;2.35;;;;;;;2.12;81.84;100317.53;5095764;28;20036;-80
2022/04/10 00:34:33;;;;;;;6.38;1.90;;;;;;;1.99;82.37;100324.03;5098416;28;20386;-81
2022/04/10 00:36:59;;;;;;;7.83;2.83;;;;;;;2.11;81.91;100324.66;5099342;28;20032;-81
2022/04/10 00:39:24;;;;;;;5.63;1.83;;;;;;;2.05;81.73;100319.94;5102467;28;20329;-81
2022/04/10 00:41:50;;;;;;;6.80;2.22;;;;;;;2.03;81.92;100325.41;5103119;28;20031;-81
2022/04/10 00:44:15;;;;;;;14.73;4.40;;;;;;;1.94;82.06;100318.38;5103444;28;20036;-80
2022/04/10 00:46:41;;;;;;;8.23;2.65;;;;;;;1.90;82.44;100318.81;5086006;28;20039;-81
2022/04/10 00:49:07;;;;;;;6.50;3.08;;;;;;;1.89;82.08;100312.66;5103957;28;20088;-81
2022/04/10 00:51:46;;;;;;;3.63;1.80;;;;;;;1.92;82.43;100316.84;5102299;28;20107;-81
2022/04/10 00:54:17;;;;;;;4.78;1.63;;;;;;;1.88;82.32;100320.78;5102726;28;20042;-81
2022/04/10 00:56:44;;;;;;;7.55;2.38;;;;;;;1.80;82.58;100318.03;5102426;28;20051;-81
2022/04/10 00:59:10;;;;;;;7.97;2.50;;;;;;;1.83;83.09;100328.38;5084780;28;20466;-81
2022/04/10 01:01:36;;;;;;;;;;;;;;;1.81;82.92;100327.69;5104535;28;20033;-81
2022/04/10 01:04:03;;;;;;;7.25;2.58;;;;;;;1.83;82.99;100334.50;5105471;28;19938;-80
2022/04/10 01:06:30;;;;;;;5.50;2.25;;;;;;;1.77;82.84;100331.66;5103137;28;20062;-81
2022/04/10 01:08:56;;;;;;;7.88;2.33;;;;;;;1.78;83.70;100330.66;5105260;28;20020;-81
2022/04/10 01:11:21;;;;;;;6.30;2.03;;;;;;;1.77;83.36;100339.63;5105879;28;20442;-81
2022/04/10 01:13:47;;;;;;;14.80;4.03;;;;;;;1.87;83.00;100335.06;5106303;28;20032;-81
2022/04/10 01:16:13;;;;;;;3.53;1.90;;;;;;;1.83;82.89;100342.47;5107062;28;20720;-80
2022/04/10 01:18:40;;;;;;;7.50;2.38;;;;;;;1.82;83.01;100340.81;5107249;28;20051;-80
2022/04/10 01:21:07;;;;;;;8.75;3.05;;;;;;;1.80;83.13;100342.78;5109722;28;20028;-81
2022/04/10 01:23:32;;;;;;;8.50;2.50;;;;;;;1.79;83.15;100342.97;5107297;28;20047;-81
2022/04/10 01:25:58;;;;;;;6.37;2.53;;;;;;;1.82;82.58;100334.66;5105491;28;20032;-80
2022/04/10 01:28:23;;;;;;;9.07;3.38;;;;;;;1.80;83.23;100333.97;5106220;28;20080;-81
2022/04/10 01:30:48;;;;;;;5.20;2.17;;;;;;;1.79;82.80;100337.66;5106021;28;20056;-81
2022/04/10 01:33:14;;;;;;;6.13;2.30;;;;;;;1.86;82.60;100336.03;5107534;28;20031;-81
2022/04/10 01:35:39;;;;;;;6.53;3.17;;;;;;;1.80;82.52;100339.28;5107211;28;20289;-81
2022/04/10 01:38:06;;;;;;;5.47;2.13;;;;;;;1.73;83.11;100334.59;5107964;28;20051;-81
2022/04/10 01:40:33;;;;;;;11.25;3.28;;;;;;;1.75;83.21;100334.44;5109118;28;20431;-81
2022/04/10 01:42:58;;;;;;;5.35;2.03;;;;;;;1.73;82.87;100333.75;5111769;28;20025;-80
2022/04/10 01:45:24;;;;;;;5.20;2.03;;;;;;;1.77;83.24;100336.97;5115979;28;20035;-81
2022/04/10 01:47:53;;;;;;;5.27;1.93;;;;;;;1.69;83.04;100333.22;5113667;28;20028;-81
2022/04/10 01:50:19;;;;;;;9.57;2.33;;;;;;;1.72;83.09;100332.94;5115351;28;20035;-80
2022/04/10 01:52:45;;;;;;;5.10;1.95;;;;;;;1.77;82.87;100329.00;5115542;28;20032;-80
2022/04/10 01:55:11;;;;;;;7.93;2.75;;;;;;;1.70;82.87;100336.72;5116478;28;20019;-83
2022/04/10 01:57:37;;;;;;;7.72;2.72;;;;;;;1.70;83.07;100334.88;5117399;28;20043;-83
2022/04/10 02:00:05;;;;;;;6.22;2.25;;;;;;;1.73;82.83;100331.09;5116864;28;20028;-83
2022/04/10 02:02:30;;;;;;;5.63;2.17;;;;;;;1.66;83.18;100330.03;5116818;28;20040;-84
2022/04/10 02:04:55;;;;;;;8.30;2.05;;;;;;;1.65;82.99;100334.50;5116968;28;20023;-83
2022/04/10 02:07:22;;;;;;;7.60;2.97;;;;;;;1.66;83.17;100336.16;5117794;28;20063;-82
2022/04/10 02:09:49;;;;;;;6.20;2.35;;;;;;;1.69;82.74;100327.91;5117684;28;20036;-83
2022/04/10 02:12:14;;;;;;;7.85;2.80;;;;;;;1.67;82.69;100332.53;5118172;28;20028;-84
2022/04/10 02:14:39;;;;;;;9.50;3.10;;;;;;;1.68;82.91;100333.38;5117495;28;20043;-83
2022/04/10 02:17:07;;;;;;;7.70;2.20;;;;;;;1.62;82.84;100326.00;5117258;28;20024;-85
2022/04/10 02:19:33;;;;;;;9.32;2.72;;;;;;;1.57;83.20;100331.78;5097283;28;20052;-82
2022/04/10 02:21:59;;;;;;;6.00;2.53;;;;;;;1.64;82.63;100331.97;5086210;28;20028;-82
2022/04/10 02:24:25;;;;;;;4.47;1.80;;;;;;;1.64;82.82;100330.16;5103515;28;20020;-84
2022/04/10 02:26:50;;;;;;;4.70;1.90;;;;;;;1.69;82.52;100335.88;5115858;28;20012;-83
2022/04/10 02:29:15;;;;;;;6.13;1.98;;;;;;;1.70;82.32;100334.88;5099297;28;20105;-84
2022/04/10 02:31:41;;;;;;;9.70;3.47;;;;;;;1.70;82.19;100337.53;5117119;28;20031;-86
2022/04/10 02:34:06;;;;;;;8.67;2.60;;;;;;;1.73;82.18;100339.06;5117258;28;20036;-84
2022/04/10 02:36:31;;;;;;;8.87;3.07;;;;;;;1.70;81.81;100329.56;5106101;28;20254;-83
2022/04/10 02:38:58;;;;;;;10.25;2.42;;;;;;;1.73;81.85;100337.25;5112908;28;20020;-84
2022/04/10 02:41:23;;;;;;;7.97;3.15;;;;;;;1.66;82.02;100344.13;5113396;28;20040;-83
2022/04/10 02:43:49;;;;;;;6.63;2.40;;;;;;;1.65;82.04;100342.47;5109482;28;20043;-83
2022/04/10 02:46:14;;;;;;;5.72;2.13;;;;;;;1.68;81.96;100344.00;5107695;28;20280;-84
2022/04/10 02:48:39;;;;;;;5.35;2.25;;;;;;;1.76;81.99;100345.91;5108282;28;20038;-86
2022/04/10 02:51:05;;;;;;;6.85;2.08;;;;;;;1.78;81.61;100349.25;5093125;28;20032;-83
2022/04/10 02:53:30;;;;;;;11.52;2.25;;;;;;;1.73;81.54;100347.88;5102905;28;20039;-83
2022/04/10 02:55:56;;;;;;;4.85;1.88;;;;;;;1.70;81.81;100352.66;5083574;28;20115;-83
2022/04/10 02:58:21;;;;;;;6.55;2.03;;;;;;;1.69;82.04;100354.47;5102268;28;20051;-83
2022/04/10 03:00:48;;;;;;;7.35;2.10;;;;;;;1.68;82.00;100355.44;5102321;28;20024;-83
2022/04/10 03:03:13;;;;;;;;;;;;;;;1.60;82.22;100357.19;5102103;28;20036;-83
2022/04/10 03:05:38;;;;;;;8.40;2.10;;;;;;;1.62;81.73;100358.69;5101463;28;19915;-84
2022/04/10 03:08:04;;;;;;;4.80;2.07;;;;;;;1.71;81.73;100368.44;5101576;28;20074;-83
2022/04/10 03:10:31;;;;;;;6.15;1.63;;;;;;;1.73;81.38;100366.47;5084053;28;20262;-83
2022/04/10 03:12:56;;;;;;;5.05;2.25;;;;;;;1.73;81.63;100371.78;5101633;28;20043;-84
2022/04/10 03:15:22;;;;;;;4.93;1.60;;;;;;;1.74;81.15;100375.28;5101089;28;20040;-83
2022/04/10 03:17:47;;;;;;;5.67;1.90;;;;;;;1.65;81.89;100378.81;5101529;28;20035;-83
2022/04/10 03:20:12;;;;;;;6.55;2.22;;;;;;;1.59;82.01;100372.28;5101152;28;20028;-83
2022/04/10 03:22:39;;;;;;;4.80;1.90;;;;;;;1.65;81.68;100374.34;5101854;28;20380;-84
2022/04/10 03:25:05;;;;;;;5.18;2.40;;;;;;;1.62;81.74;100373.78;5101053;28;20032;-84
2022/04/10 03:27:30;;;;;;;5.57;2.20;;;;;;;1.69;81.63;100375.72;5083045;28;20044;-83
2022/04/10 03:29:55;;;;;;;3.90;1.37;;;;;;;1.74;81.67;100376.13;5083038;28;20043;-83
2022/04/10 03:32:21;;;;;;;8.80;2.07;;;;;;;1.71;81.13;100379.06;5101761;28;20274;-83
2022/04/10 03:34:46;;;;;;;5.53;1.93;;;;;;;1.63;81.93;100378.13;5100816;28;20070;-83
2022/04/10 03:37:14;;;;;;;7.07;2.07;;;;;;;1.60;82.12;100375.78;5101080;28;20028;-82
2022/04/10 03:39:39;;;;;;;7.45;2.60;;;;;;;1.62;81.85;100373.78;5100800;28;20054;-82
2022/04/10 03:42:05;;;;;;;11.23;3.00;;;;;;;1.68;81.63;100376.69;5082502;28;20439;-82
2022/04/10 03:44:30;;;;;;;8.57;2.97;;;;;;;1.56;82.22;100375.25;5083706;28;20270;-83
2022/04/10 03:46:58;;;;;;;6.67;2.83;;;;;;;1.64;81.92;100380.63;5101263;28;20038;-82
2022/04/10 03:49:24;;;;;;;4.45;2.13;;;;;;;1.69;81.51;100380.19;5100488;28;20035;-83
2022/04/10 03:51:49;;;;;;;7.17;2.23;;;;;;;1.67;81.51;100384.81;5099741;28;20032;-82
2022/04/10 03:54:14;;;;;;;7.67;2.20;;;;;;;1.60;81.58;100387.25;5080489;28;20274;-82
2022/04/10 03:56:40;;;;;;;3.80;1.70;;;;;;;1.63;81.63;100386.09;5099046;28;20039;-82
2022/04/10 03:59:05;;;;;;;7.37;2.77;;;;;;;1.57;82.01;100390.19;5099401;28;20016;-83
2022/04/10 04:01:30;;;;;;;7.17;2.50;;;;;;;1.66;81.75;100394.59;5096550;28;20274;-82
2022/04/10 04:03:55;;;;;;;5.73;1.93;;;;;;;1.59;81.54;100390.03;5095306;28;20273;-83
2022/04/10 04:06:24;;;;;;;5.50;2.30;;;;;;;1.60;81.70;100397.88;5095792;28;20039;-82
2022/04/10 04:08:55;;;;;;;4.82;1.83;;;;;;;1.69;81.52;100396.13;5098235;28;20530;-84
2022/04/10 04:11:20;;;;;;;5.32;2.15;;;;;;;1.66;81.73;100402.56;5099596;28;20058;-83
2022/04/10 04:13:51;;;;;;;6.83;1.73;;;;;;;1.51;82.26;100404.06;5098776;28;20082;-83
2022/04/10 04:16:16;;;;;;;5.82;2.42;;;;;;;1.62;82.24;100401.19;5099121;28;20371;-83
2022/04/10 04:18:45;;;;;;;7.73;2.30;;;;;;;1.56;81.98;100408.94;5101393;28;20032;-83
2022/04/10 04:21:13;;;;;;;6.90;2.67;;;;;;;1.63;81.77;100412.66;5102780;28;20032;-83
2022/04/10 04:23:44;;;;;;;7.53;2.50;;;;;;;1.58;82.03;100406.97;5102417;28;20411;-83
2022/04/10 04:26:10;;;;;;;5.47;2.28;;;;;;;1.62;82.21;100411.81;5098623;28;20158;-82
2022/04/10 04:28:36;;;;;;;7.68;2.88;;;;;;;1.62;82.05;100421.59;5099585;28;20063;-82
2022/04/10 04:31:02;;;;;;;9.27;3.08;;;;;;;1.65;81.63;100419.47;5067037;28;20063;-82
2022/04/10 04:33:27;;;;;;;7.35;2.78;;;;;;;1.59;81.77;100409.47;5098670;28;20463;-82
2022/04/10 04:35:52;;;;;;;7.83;2.20;;;;;;;1.63;81.83;100410.00;5099131;28;20032;-82
2022/04/10 04:38:21;;;;;;;10.23;3.10;;;;;;;1.59;81.90;100427.22;5099244;28;20028;-83
2022/04/10 04:40:46;;;;;;;7.47;2.75;;;;;;;1.62;82.30;100433.06;5099332;28;20036;-83
2022/04/10 04:43:11;;;;;;;7.93;3.07;;;;;;;1.62;82.38;100438.38;5098647;28;20457;-83
2022/04/10 04:45:38;;;;;;;5.80;2.20;;;;;;;1.65;81.84;100437.25;5099210;28;20062;-83
2022/04/10 04:48:06;;;;;;;11.40;2.97;;;;;;;1.62;81.76;100440.19;5081548;28;20059;-83
2022/04/10 04:50:32;;;;;;;10.05;2.95;;;;;;;1.65;81.74;100440.72;5098789;28;20036;-82
2022/04/10 04:52:57;;;;;;;6.30;2.90;;;;;;;1.73;81.61;100443.50;5099735;28;20039;-83
2022/04/10 04:55:23;;;;;;;6.97;2.53;;;;;;;1.63;81.69;100440.03;5099851;28;20036;-83
2022/04/10 04:57:49;;;;;;;7.60;3.13;;;;;;;1.68;81.35;100443.09;5098711;28;20562;-83
2022/04/10 05:00:15;;;;;;;5.87;2.77;;;;;;;1.66;82.00;100441.56;5099690;28;20088;-82
2022/04/10 05:02:40;;;;;;;8.23;2.97;;;;;;;1.57;82.36;100445.97;5099626;28;20258;-83
2022/04/10 05:05:08;;;;;;;7.60;2.60;;;;;;;1.68;81.78;100456.38;5099476;28;20082;-82
2022/04/10 05:07:34;;;;;;;7.13;2.70;;;;;;;1.66;81.98;100468.97;5081449;28;20269;-83
2022/04/10 05:10:03;;;;;;;8.63;2.80;;;;;;;1.73;81.52;100467.41;5099082;28;20034;-82
2022/04/10 05:12:30;;;;;;;8.82;2.83;;;;;;;1.79;81.67;100467.81;5098822;28;20024;-82
2022/04/10 05:15:00;;;;;;;8.93;2.50;;;;;;;1.86;81.15;100468.88;5080545;28;20119;-82
2022/04/10 05:17:28;;;;;;;7.65;2.83;;;;;;;1.82;81.18;100475.47;5081275;28;20031;-84
2022/04/10 05:19:53;;;;;;;7.80;3.13;;;;;;;1.85;81.22;100477.84;5101648;28;20047;-83
2022/04/10 05:22:18;;;;;;;6.45;2.83;;;;;;;1.84;81.33;100471.69;5102968;28;20471;-83
2022/04/10 05:24:44;;;;;;;5.07;2.30;;;;;;;1.85;80.95;100473.34;5102936;28;20102;-82
2022/04/10 05:27:10;;;;;;;6.53;3.17;;;;;;;1.84;81.54;100479.66;5101267;28;20027;-85
2022/04/10 05:29:36;;;;;;;5.80;2.88;;;;;;;1.88;81.31;100482.84;5102533;28;20051;-84
2022/04/10 05:32:11;;;;;;;9.73;2.72;;;;;;;1.89;81.48;100485.38;5067923;28;20060;-84
2022/04/10 05:34:37;;;;;;;6.13;2.67;;;;;;;1.87;81.27;100486.50;5102390;28;20032;-84
2022/04/10 05:37:05;;;;;;;5.88;3.03;;;;;;;1.96;81.41;100478.50;5102980;28;20066;-84
2022/04/10 05:39:33;;;;;;;5.85;2.75;;;;;;;2.09;81.04;100480.78;5102746;28;20032;-83
2022/04/10 05:41:59;;;;;;;5.97;3.17;;;;;;;1.97;81.20;100474.81;5084933;28;20032;-83
2022/04/10 05:44:26;;;;;;;11.90;3.05;;;;;;;2.04;81.46;100477.72;5083953;28;20040;-83
2022/04/10 05:46:52;;;;;;;6.32;2.58;;;;;;;2.05;81.19;100477.59;5101805;28;20040;-84
2022/04/10 05:49:17;;;;;;;10.20;2.90;;;;;;;2.11;80.62;100481.47;5101740;28;20059;-84
2022/04/10 05:51:44;;;;;;;8.38;3.47;;;;;;;2.14;80.83;100485.66;5099612;28;20028;-83
2022/04/10 05:54:09;;;;;;;9.25;3.03;;;;;;;2.26;80.97;100489.78;5085693;28;20040;-84
2022/04/10 05:56:35;;;;;;;7.13;3.35;;;;;;;2.29;80.50;100490.31;5103721;28;20035;-84
2022/04/10 05:59:00;;;;;;;12.30;3.47;;;;;;;2.31;80.16;100487.50;5101801;28;20032;-83
2022/04/10 06:01:25;;;;;;;7.50;2.95;;;;;;;2.41;80.13;100493.59;5104036;28;20036;-83
2022/04/10 06:03:51;;;;;;;10.57;3.17;;;;;;;2.34;80.40;100500.47;5085000;28;20055;-83
2022/04/10 06:06:18;;;;;;;11.17;3.60;;;;;;;2.36;80.45;100496.69;5104930;28;20255;-84
2022/04/10 06:08:43;;;;;;;7.30;3.42;;;;;;;2.42;80.11;100496.09;5103707;28;20056;-85
2022/04/10 06:11:09;;;;;;;8.65;3.42;;;;;;;2.43;79.87;100508.41;5083795;28;20082;-84
2022/04/10 06:13:34;;;;;;;6.67;2.87;;;;;;;2.56;79.40;100513.34;5102031;28;20502;-84
2022/04/10 06:15:59;;;;;;;8.87;3.10;;;;;;;2.58;79.97;100518.53;5101854;28;20052;-84
2022/04/10 06:18:25;;;;;;;12.63;3.97;;;;;;;2.68;79.70;100517.47;5102050;28;20066;-84
2022/04/10 06:20:50;;;;;;;8.83;3.87;;;;;;;2.70;79.63;100520.78;5103433;28;20258;-84
2022/04/10 06:23:21;;;;;;;8.65;3.25;;;;;;;2.82;79.08;100513.44;5103597;28;20032;-84
2022/04/10 06:25:47;;;;;;;11.52;4.40;;;;;;;2.84;79.12;100518.63;5101591;28;20043;-80
2022/04/10 06:28:12;;;;;;;6.65;2.90;;;;;;;3.00;78.64;100516.94;5102496;28;20032;-82
2022/04/10 06:30:37;;;;;;;8.50;3.53;;;;;;;3.07;78.66;100528.63;5102345;28;20174;-82
2022/04/10 06:33:02;;;;;;;11.67;3.10;;;;;;;2.95;77.97;100524.53;5102595;28;20382;-83
2022/04/10 06:35:33;;;;;;;11.00;3.63;;;;;;;3.09;77.84;100520.47;5083901;28;20097;-82
2022/04/10 06:38:01;;;;;;;7.93;2.72;;;;;;;3.21;78.21;100529.91;5084661;28;20066;-82
2022/04/10 06:40:27;;;;;;;6.93;3.22;;;;;;;3.40;77.24;100524.38;5102004;28;20023;-82
2022/04/10 06:42:53;;;;;;;10.35;3.95;;;;;;;3.40;77.14;100532.34;5097508;28;20157;-82
2022/04/10 06:45:19;;;;;;;9.80;3.20;;;;;;;3.41;77.00;100530.53;5096786;28;20043;-82
2022/04/10 06:47:44;;;;;;;9.20;3.38;;;;;;;3.54;76.74;100536.28;5096910;28;20036;-83
2022/04/10 06:50:10;;;;;;;8.50;3.50;;;;;;;3.65;76.30;100538.69;5079010;28;20042;-81
2022/04/10 06:52:35;;;;;;;9.33;3.50;;;;;;;3.71;76.61;100532.72;5097435;28;20024;-82
2022/04/10 06:55:01;;;;;;;10.88;3.85;;;;;;;3.83;76.13;100534.13;5098327;28;20335;-82
2022/04/10 06:57:26;;;;;;;10.25;3.20;;;;;;;3.94;75.47;100538.34;5097475;28;20426;-81
2022/04/10 06:59:51;;;;;;;7.13;2.70;;;;;;;4.01;74.62;100543.88;5097239;28;20028;-81
2022/04/10 07:02:17;;;;;;;7.57;3.40;;;;;;;4.13;74.42;100543.41;5097832;28;20034;-81
2022/04/10 07:04:42;;;;;;;8.80;3.03;;;;;;;4.11;74.80;100545.44;5079613;28;20036;-82
2022/04/10 07:07:07;;;;;;;6.13;2.67;;;;;;;4.34;74.59;100555.50;5097754;28;20329;-82
2022/04/10 07:09:33;;;;;;;11.23;3.47;;;;;;;4.38;73.40;100544.34;5079783;28;20020;-82
2022/04/10 07:11:58;;;;;;;6.27;2.63;;;;;;;4.53;72.74;100555.22;5098898;28;20032;-82
2022/04/10 07:14:23;;;;;;;7.37;2.53;;;;;;;4.34;72.77;100561.69;5109172;28;20028;-82
2022/04/10 07:16:50;;;;;;;7.37;2.90;;;;;;;4.54;73.43;100557.75;5098589;28;20091;-82
2022/04/10 07:19:15;;;;;;;9.10;3.70;;;;;;;4.65;73.05;100569.97;5116865;28;20052;-81
2022/04/10 07:24:26;;;;;;;7.65;3.10;;;;;;;5.06;71.44;100565.50;5113399;28;20107;-83
2022/04/10 07:26:52;;;;;;;6.50;2.25;;;;;;;5.21;70.69;100566.50;5107756;28;20028;-80
2022/04/10 07:29:18;;;;;;;8.88;2.65;;;;;;;4.86;71.25;100573.00;5106001;28;20024;-80
2022/04/10 07:31:43;;;;;;;6.35;2.20;;;;;;;4.98;70.94;100568.19;5104624;28;20119;-82
2022/04/10 07:34:08;;;;;;;6.67;3.03;;;;;;;5.21;69.83;100565.69;5103661;28;20032;-81
2022/04/10 07:36:33;;;;;;;7.13;2.73;;;;;;;5.33;69.41;100574.22;5108239;28;20028;-81
2022/04/10 07:39:00;;;;;;;6.03;2.45;;;;;;;5.29;70.34;100575.53;5096334;28;20068;-80
2022/04/10 07:41:25;;;;;;;7.85;2.47;;;;;;;5.36;70.68;100579.22;5113650;28;20024;-81
2022/04/10 07:43:51;;;;;;;8.93;3.00;;;;;;;5.59;71.04;100580.19;5114300;28;20032;-81
2022/04/10 07:49:00;;;;;;;6.80;2.53;;;;;;;5.85;69.83;100586.19;5114692;28;20035;-81
2022/04/10 07:51:26;;;;;;;5.40;2.27;;;;;;;6.02;68.91;100587.00;5096327;28;20047;-81
2022/04/10 07:53:54;;;;;;;6.93;2.78;;;;;;;5.88;69.35;100585.00;5113755;28;20085;-80
2022/04/10 07:56:20;;;;;;;8.07;2.70;;;;;;;5.84;68.71;100592.53;5113799;28;20039;-81
2022/04/10 07:58:45;;;;;;;;;;;;;;;5.82;68.00;100597.22;5114134;28;20044;-81
2022/04/10 08:01:11;;;;;;;5.80;2.53;;;;;;;6.06;67.56;100598.19;5092642;28;19915;-80
2022/04/10 08:03:36;;;;;;;6.80;3.00;;;;;;;5.88;68.39;100596.56;5111485;28;20262;-81
2022/04/10 08:06:01;;;;;;;6.23;2.60;;;;;;;5.88;67.51;100601.94;5111964;28;20087;-80
2022/04/10 08:08:27;;;;;;;7.80;2.63;;;;;;;5.90;68.21;100599.91;5113051;28;20113;-80
2022/04/10 08:10:52;;;;;;;5.17;2.57;;;;;;;6.09;68.60;100598.66;5113456;28;20060;-80
2022/04/10 08:13:17;;;;;;;8.32;2.90;;;;;;;6.12;67.52;100606.34;5112479;28;20052;-81
2022/04/10 08:15:43;;;;;;;4.07;1.80;;;;;;;6.27;66.30;100601.13;5110897;28;20035;-80
2022/04/10 08:18:08;;;;;;;5.33;2.00;;;;;;;6.40;65.49;100598.75;5111192;28;20277;-81
2022/04/10 08:20:35;;;;;;;6.63;2.40;;;;;;;6.57;64.98;100596.84;5095272;28;20024;-80
2022/04/10 08:23:00;;;;;;;8.80;1.70;;;;;;;6.78;64.44;100597.06;5112718;28;20032;-79
2022/04/10 08:25:26;;;;;;;3.47;1.45;;;;;;;7.04;61.87;100596.72;5094368;28;20035;-82
2022/04/10 08:27:51;;;;;;;6.60;1.47;;;;;;;6.82;59.79;100605.56;5107613;28;20126;-79
2022/04/10 08:30:17;;;;;;;8.40;1.88;;;;;;;6.68;60.89;100609.00;5108788;28;20059;-80
2022/04/10 08:32:43;;;;;;;4.07;1.20;;;;;;;6.50;60.43;100607.41;5108997;28;20103;-78
2022/04/10 08:35:09;;;;;;;;;;;;;;;6.49;61.49;100613.75;5105793;28;20040;-80
2022/04/10 08:37:35;;;;;;;6.43;1.47;;;;;;;6.57;60.79;100611.06;5102655;28;19951;-81
2022/04/10 08:40:02;;;;;;;2.88;1.25;;;;;;;6.67;61.34;100608.16;5080527;28;20082;-80
2022/04/10 08:42:28;;;;;;;3.75;2.00;;;;;;;6.71;62.03;100617.50;5098196;28;20451;-80
2022/04/10 08:44:55;;;;;;;5.43;2.55;;;;;;;6.64;62.38;100619.22;5097116;28;20051;-78
2022/04/10 08:47:21;;;;;;;6.07;1.50;;;;;;;6.57;62.68;100611.06;5097884;28;20036;-80
2022/04/10 08:49:53;;;;;;;7.65;2.45;;;;;;;6.63;62.41;100618.38;5099318;28;20092;-80
2022/04/10 08:52:20;;;;;;;4.75;2.05;;;;;;;6.57;62.44;100629.81;5097828;28;20039;-79
2022/04/10 08:54:47;;;;;;;9.52;2.30;;;;;;;6.42;62.43;100628.88;5101288;28;20123;-80
2022/04/10 08:57:12;;;;;;;5.75;1.95;;;;;;;6.36;61.80;100624.19;5103303;28;20505;-79
2022/04/10 08:59:39;;;;;;;3.45;1.38;;;;;;;6.30;61.98;100632.91;5105233;28;20047;-79
2022/04/10 09:02:05;;;;;;;6.20;1.50;;;;;;;6.31;61.29;100623.88;5104767;28;20093;-79
2022/04/10 09:04:31;;;;;;;4.20;1.40;;;;;;;6.49;60.70;100626.31;5105736;28;20090;-79
2022/04/10 09:07:05;;;;;;;4.32;1.60;;;;;;;6.74;61.29;100627.03;5105340;28;20032;-80
2022/04/10 09:09:32;;;;;;;3.42;1.20;;;;;;;6.88;58.71;100635.16;5105471;28;20036;-81
2022/04/10 09:11:58;;;;;;;3.17;1.35;;;;;;;7.03;59.66;100627.19;5105297;28;20031;-83
2022/04/10 09:14:25;;;;;;;;;;;;;;;7.18;58.19;100629.94;5084493;28;20471;-81
2022/04/10 09:17:14;;;;;;;4.35;1.60;;;;;;;7.12;57.87;100636.03;5103005;28;20323;-81
2022/04/10 09:19:53;;;;;;;3.45;1.27;;;;;;;7.00;58.51;100638.28;5101806;28;20420;-80
2022/04/10 09:22:22;;;;;;;4.00;1.27;;;;;;;6.76;57.83;100643.78;5101572;28;20058;-81
2022/04/10 09:25:11;;;;;;;5.30;2.17;;;;;;;6.52;59.09;100648.22;5103651;28;20432;-81
2022/04/10 09:27:43;;;;;;;4.90;1.40;;;;;;;6.48;60.20;100641.53;5101562;28;20032;-81
2022/04/10 09:30:16;;;;;;;3.22;1.30;;;;;;;6.39;60.80;100642.59;5103343;28;20108;-81
2022/04/10 09:32:49;;;;;;;11.40;1.77;;;;;;;6.46;60.31;100643.53;5102354;28;20028;-80
2022/04/10 09:35:17;;;;;;;7.50;2.17;;;;;;;6.53;61.69;100644.53;5100545;28;20060;-81
2022/04/10 09:37:52;;;;;;;7.07;1.50;;;;;;;6.55;60.16;100636.34;5101663;28;20474;-81
2022/04/10 09:40:22;;;;;;;3.85;1.30;;;;;;;6.67;61.22;100639.44;5100164;28;20031;-81
2022/04/10 09:43:12;;;;;;;3.28;1.38;;;;;;;6.81;61.04;100641.38;5099593;28;20035;-80
2022/04/10 09:45:43;;;;;;;3.20;1.40;;;;;;;6.80;61.15;100643.25;5087176;28;20406;-81
2022/04/10 09:48:19;;;;;;;10.23;1.70;;;;;;;6.79;60.43;100640.75;5100568;28;20106;-81
2022/04/10 09:50:45;;;;;;;4.82;1.40;;;;;;;6.82;60.02;100643.06;5101088;28;20464;-81
2022/04/10 09:53:11;;;;;;;;;;;;;;;6.97;59.61;100654.72;5101013;28;20043;-81
2022/04/10 09:55:42;;;;;;;3.43;1.53;;;;;;;6.92;59.05;100646.38;5103284;28;19959;-81
2022/04/10 09:58:13;;;;;;;2.70;1.20;;;;;;;7.22;60.42;100650.03;5100897;28;20270;-81
2022/04/10 10:00:44;;;;;;;3.28;1.00;;;;;;;7.35;57.82;100630.66;5100512;28;20028;-82
2022/04/10 10:03:10;;;;;;;5.68;1.45;;;;;;;7.45;57.18;100634.78;5101595;28;20031;-81
2022/04/10 10:05:36;;;;;;;4.40;1.20;;;;;;;7.26;56.42;100637.94;5099266;28;20043;-80
2022/04/10 10:08:03;;;;;;;3.50;1.30;;;;;;;7.73;57.32;100640.41;5099686;28;20119;-78
2022/04/10 10:10:30;;;;;;;5.05;1.50;;;;;;;7.69;55.72;100631.09;5098002;28;20451;-79
2022/04/10 10:12:57;;;;;;;5.55;1.40;;;;;;;7.78;55.72;100629.97;5101324;28;20032;-83
2022/04/10 10:15:23;;;;;;;3.00;1.02;;;;;;;8.06;54.76;100627.53;5102198;28;20028;-79
2022/04/10 10:17:48;;;;;;;3.92;1.13;;;;;;;8.01;54.92;100627.25;5106152;28;20157;-80
2022/04/10 10:20:14;;;;;;;3.13;0.80;;;;;;;8.16;53.92;100627.25;5107172;28;20035;-83
2022/04/10 10:22:40;;;;;;;3.35;0.93;;;;;;;8.77;53.91;100633.28;5111889;28;20035;-80
2022/04/10 10:25:11;;;;;;;3.90;1.23;;;;;;;8.78;53.22;100621.53;5086558;28;20055;-81
2022/04/10 10:27:45;;;;;;;4.93;1.30;;;;;;;8.00;54.31;100626.44;5106095;28;20029;-81
2022/04/10 10:30:22;;;;;;;2.75;1.00;;;;;;;8.01;54.33;100625.41;5104750;28;20044;-80
2022/04/10 10:32:55;;;;;;;1.98;0.82;;;;;;;7.80;52.79;100624.44;5084756;28;20115;-80
2022/04/10 10:35:38;;;;;;;3.00;0.98;;;;;;;7.57;53.36;100611.91;5081203;28;20028;-80
2022/04/10 10:38:18;;;;;;;2.45;0.73;;;;;;;7.76;50.63;100609.72;5081816;28;20454;-84
2022/04/10 10:40:43;;;;;;;3.22;1.10;;;;;;;7.90;49.28;100614.28;5098946;28;20433;-80
2022/04/10 10:43:09;;;;;;;1.27;0.60;;;;;;;8.14;48.07;100610.50;5100354;28;20028;-82
2022/04/10 10:45:41;;;;;;;2.22;0.90;;;;;;;8.19;48.15;100614.31;5081288;28;20108;-81
2022/04/10 10:48:33;;;;;;;2.63;1.30;;;;;;;8.09;47.91;100613.75;5099549;28;20032;-81
2022/04/10 10:51:06;;;;;;;1.50;0.50;;;;;;;7.96;47.96;100603.66;5097459;28;20042;-82
2022/04/10 10:54:04;;;;;;;3.13;0.60;;;;;;;7.85;49.13;100614.84;5098262;28;20028;-80
2022/04/10 10:56:31;;;;;;;3.47;0.60;;;;;;;7.99;48.85;100621.25;5083152;28;20036;-81
2022/04/10 10:59:21;;;;;;;1.70;0.70;;;;;;;8.31;48.91;100615.50;5098937;28;20034;-81
2022/04/10 11:02:14;;;;;;;2.25;0.60;;;;;;;8.74;49.02;100625.59;5099310;28;20084;-80
2022/04/10 11:04:42;;;;;;;5.22;0.90;;;;;;;8.79;47.96;100620.47;5089955;28;20043;-77
2022/04/10 11:07:19;;;;;;;1.17;0.50;;;;;;;9.16;48.28;100616.78;5098822;28;20089;-82
2022/04/10 11:09:55;;;;;;;1.73;0.80;;;;;;;9.04;46.62;100625.34;5100361;28;20109;-81
2022/04/10 11:12:22;;;;;;;1.17;0.40;;;;;;;8.97;46.58;100627.13;5100717;28;20028;-81
2022/04/10 11:14:51;;;;;;;3.72;0.40;;;;;;;9.00;45.58;100625.91;5100239;28;20035;-83
2022/04/10 11:17:20;;;;;;;3.60;0.70;;;;;;;9.03;46.14;100630.91;5101936;28;20024;-82
2022/04/10 11:19:54;;;;;;;2.40;0.60;;;;;;;9.02;47.31;100631.94;5104732;28;20031;-80
2022/04/10 11:22:25;;;;;;;1.27;0.55;;;;;;;8.93;47.93;100625.03;5112979;28;20027;-83
2022/04/10 11:24:52;;;;;;;1.33;0.57;;;;;;;8.80;47.27;100632.91;5111537;28;20055;-84
2022/04/10 11:27:51;;;;;;;0.85;0.40;;;;;;;9.07;46.79;100634.88;5112377;28;20031;-80
2022/04/10 11:30:22;;;;;;;1.77;0.50;;;;;;;9.47;46.05;100632.63;5112680;28;20096;-80
2022/04/10 11:32:53;;;;;;;2.03;0.60;;;;;;;9.56;44.33;100631.44;5111016;28;20032;-82
2022/04/10 11:35:28;;;;;;;1.45;0.50;;;;;;;9.96;44.14;100629.91;5113348;28;20039;-82
2022/04/10 11:37:58;;;;;;;1.58;0.50;;;;;;;10.19;42.66;100621.63;5116241;28;20092;-82
2022/04/10 11:40:28;;;;;;;1.75;0.70;;;;;;;9.61;43.57;100627.16;5113986;28;20024;-80